createdAt,value
2023-12-11T00:02:26.558Z,100.00
2023-12-11T00:04:54.085Z,100.00
2023-12-11T00:07:21.449Z,100.00
2023-12-11T00:09:48.818Z,100.00
2023-12-11T00:12:17.333Z,100.00
2023-12-11T00:14:44.654Z,100.00
2023-12-11T00:17:11.996Z,100.00
2023-12-11T00:19:39.461Z,100.00
2023-12-11T00:22:06.893Z,100.00
2023-12-11T00:24:34.300Z,100.00
2023-12-11T00:27:01.766Z,100.00
2023-12-11T00:29:29.064Z,100.00
2023-12-11T00:31:56.522Z,100.00
2023-12-11T00:34:24.090Z,100.00
2023-12-11T00:36:52.068Z,100.00
2023-12-11T00:39:19.757Z,100.00
2023-12-11T00:41:47.131Z,100.00
2023-12-11T00:44:14.493Z,100.00
2023-12-11T00:46:41.812Z,100.00
2023-12-11T00:49:10.132Z,100.00
2023-12-11T00:51:37.657Z,100.00
2023-12-11T00:54:05.183Z,100.00
2023-12-11T00:56:32.572Z,100.00
2023-12-11T00:58:59.901Z,100.00
2023-12-11T01:01:27.318Z,100.00
2023-12-11T01:03:54.925Z,100.00
2023-12-11T01:06:22.463Z,100.00
2023-12-11T01:08:49.840Z,100.00
2023-12-11T01:11:17.200Z,100.00
2023-12-11T01:13:44.528Z,100.00
2023-12-11T01:16:11.982Z,100.00
2023-12-11T01:18:39.909Z,100.00
2023-12-11T01:21:07.569Z,100.00
2023-12-11T01:23:35.012Z,100.00
2023-12-11T01:26:02.465Z,100.00
2023-12-11T01:28:30.202Z,100.00
2023-12-11T01:30:57.582Z,100.00
2023-12-11T01:33:25.212Z,100.00
2023-12-11T01:35:53.036Z,100.00
2023-12-11T01:38:20.588Z,100.00
2023-12-11T01:40:47.975Z,100.00
2023-12-11T01:43:18.467Z,100.00
2023-12-11T01:45:47.939Z,100.00
2023-12-11T01:48:15.543Z,100.00
2023-12-11T01:50:43.055Z,100.00
2023-12-11T01:53:10.543Z,100.00
2023-12-11T01:55:38.747Z,100.00
2023-12-11T01:58:06.418Z,100.00
2023-12-11T02:00:34.015Z,100.00
2023-12-11T02:03:01.581Z,100.00
2023-12-11T02:05:28.980Z,100.00
2023-12-11T02:07:56.624Z,100.00
2023-12-11T02:10:23.977Z,100.00
2023-12-11T02:12:51.369Z,100.00
2023-12-11T02:15:40.855Z,100.00
2023-12-11T02:18:10.010Z,100.00
2023-12-11T02:20:38.740Z,100.00
2023-12-11T02:23:10.038Z,100.00
2023-12-11T02:25:37.450Z,100.00
2023-12-11T02:28:05.439Z,100.00
2023-12-11T02:30:38.804Z,100.00
2023-12-11T02:33:06.302Z,100.00
2023-12-11T02:35:33.971Z,100.00
2023-12-11T02:38:01.318Z,100.00
2023-12-11T02:40:28.857Z,100.00
2023-12-11T02:42:56.195Z,100.00
2023-12-11T02:45:23.572Z,100.00
2023-12-11T02:49:09.655Z,100.00
2023-12-11T02:51:37.206Z,100.00
2023-12-11T02:54:04.676Z,100.00
2023-12-11T02:56:32.031Z,100.00
2023-12-11T02:58:59.723Z,100.00
2023-12-11T03:01:27.113Z,100.00
2023-12-11T03:03:54.614Z,100.00
2023-12-11T03:06:22.161Z,100.00
2023-12-11T03:08:49.690Z,100.00
2023-12-11T03:11:17.068Z,100.00
2023-12-11T03:13:44.414Z,100.00
2023-12-11T03:16:14.698Z,100.00
2023-12-11T03:18:42.839Z,100.00
2023-12-11T03:21:10.440Z,100.00
2023-12-11T03:23:39.617Z,100.00
2023-12-11T03:26:06.955Z,100.00
2023-12-11T03:28:34.285Z,100.00
2023-12-11T03:31:01.891Z,100.00
2023-12-11T03:33:29.278Z,100.00
2023-12-11T03:35:56.577Z,100.00
2023-12-11T03:38:23.980Z,100.00
2023-12-11T03:40:51.720Z,100.00
2023-12-11T03:43:19.240Z,100.00
2023-12-11T03:45:47.877Z,100.00
2023-12-11T03:48:15.529Z,100.00
2023-12-11T03:50:42.949Z,100.00
2023-12-11T03:53:11.531Z,100.00
2023-12-11T03:55:39.429Z,99.96
2023-12-11T03:58:06.795Z,99.99
2023-12-11T04:00:34.852Z,99.96
2023-12-11T04:03:02.289Z,99.97
2023-12-11T04:05:29.662Z,99.75
2023-12-11T04:07:57.023Z,99.72
2023-12-11T04:10:24.349Z,99.79
2023-12-11T04:12:51.680Z,99.77
2023-12-11T04:15:19.098Z,99.69
2023-12-11T04:17:46.499Z,99.68
2023-12-11T04:20:13.940Z,99.50
2023-12-11T04:22:41.356Z,99.60
2023-12-11T04:25:08.847Z,99.67
2023-12-11T04:27:36.455Z,99.77
2023-12-11T04:30:05.749Z,99.66
2023-12-11T04:32:33.127Z,99.57
2023-12-11T04:35:00.692Z,99.59
2023-12-11T04:37:28.239Z,99.54
2023-12-11T04:39:55.938Z,99.60
2023-12-11T04:42:23.353Z,99.71
2023-12-11T04:44:50.712Z,99.81
2023-12-11T04:47:18.161Z,99.68
2023-12-11T04:49:45.664Z,99.36
2023-12-11T04:52:13.314Z,99.17
2023-12-11T04:54:42.364Z,99.31
2023-12-11T04:57:09.916Z,98.97
2023-12-11T04:59:38.320Z,98.61
2023-12-11T05:02:06.619Z,98.71
2023-12-11T05:04:34.017Z,98.73
2023-12-11T05:07:01.502Z,98.93
2023-12-11T05:09:28.854Z,99.12
2023-12-11T05:11:56.195Z,99.50
2023-12-11T05:14:23.677Z,99.69
2023-12-11T05:16:50.995Z,99.55
2023-12-11T05:19:18.489Z,99.52
2023-12-11T05:21:46.062Z,99.61
2023-12-11T05:24:13.514Z,99.72
2023-12-11T05:26:40.911Z,99.99
2023-12-11T05:29:08.256Z,100.00
2023-12-11T05:31:35.672Z,100.00
2023-12-11T05:34:03.650Z,100.00
2023-12-11T05:36:31.200Z,100.00
2023-12-11T05:38:58.571Z,100.00
2023-12-11T05:41:25.960Z,100.00
2023-12-11T05:43:53.368Z,100.00
2023-12-11T05:46:20.720Z,100.00
2023-12-11T05:48:48.318Z,100.00
2023-12-11T05:51:15.879Z,100.00
2023-12-11T05:53:43.245Z,100.00
2023-12-11T05:56:11.262Z,100.00
2023-12-11T05:58:39.148Z,100.00
2023-12-11T06:01:06.844Z,100.00
2023-12-11T06:03:34.286Z,100.00
2023-12-11T06:06:01.923Z,100.00
2023-12-11T06:08:29.377Z,100.00
2023-12-11T06:10:56.771Z,100.00
2023-12-11T06:13:24.144Z,100.00
2023-12-11T06:15:51.569Z,100.00
2023-12-11T06:18:20.213Z,100.00
2023-12-11T06:20:47.922Z,100.00
2023-12-11T06:23:15.279Z,100.00
2023-12-11T06:25:42.635Z,100.00
2023-12-11T06:28:10.121Z,100.00
2023-12-11T06:30:37.553Z,100.00
2023-12-11T06:33:04.917Z,100.00
2023-12-11T06:35:32.374Z,100.00
2023-12-11T06:37:59.708Z,100.00
2023-12-11T06:40:27.103Z,100.00
2023-12-11T06:42:54.548Z,100.00
2023-12-11T06:45:21.934Z,100.00
2023-12-11T06:47:49.245Z,100.00
2023-12-11T06:50:20.997Z,100.00
2023-12-11T06:52:48.628Z,100.00
2023-12-11T06:55:16.132Z,100.00
2023-12-11T06:57:43.522Z,100.00
2023-12-11T07:00:12.055Z,100.00
2023-12-11T07:02:39.984Z,100.00
2023-12-11T07:05:08.350Z,100.00
2023-12-11T07:07:36.387Z,100.00
2023-12-11T07:10:06.724Z,100.00
2023-12-11T07:12:34.459Z,100.00
2023-12-11T07:15:02.160Z,100.00
2023-12-11T07:17:30.700Z,100.00
2023-12-11T07:19:59.033Z,100.00
2023-12-11T07:22:26.555Z,100.00
2023-12-11T07:24:53.888Z,100.00
2023-12-11T07:27:21.402Z,100.00
2023-12-11T07:29:48.745Z,100.00
2023-12-11T07:32:16.189Z,100.00
2023-12-11T07:34:44.295Z,100.00
2023-12-11T07:37:11.850Z,100.00
2023-12-11T07:39:39.548Z,100.00
2023-12-11T07:42:06.921Z,100.00
2023-12-11T07:44:34.278Z,100.00
2023-12-11T07:47:01.644Z,100.00
2023-12-11T07:49:29.166Z,100.00
2023-12-11T07:51:56.878Z,100.00
2023-12-11T07:54:24.419Z,100.00
2023-12-11T07:56:51.921Z,100.00
2023-12-11T07:59:19.274Z,100.00
2023-12-11T08:01:47.557Z,100.00
2023-12-11T08:04:15.392Z,100.00
2023-12-11T08:06:43.275Z,100.00
2023-12-11T08:09:10.923Z,100.00
2023-12-11T08:11:38.361Z,100.00
2023-12-11T08:14:06.849Z,99.95
2023-12-11T08:16:34.206Z,99.85
2023-12-11T08:19:02.359Z,99.78
2023-12-11T08:21:29.902Z,99.67
2023-12-11T08:23:57.238Z,99.60
2023-12-11T08:26:25.459Z,99.34
2023-12-11T08:28:52.913Z,99.25
2023-12-11T08:31:20.533Z,98.93
2023-12-11T08:33:48.104Z,98.57
2023-12-11T08:36:15.653Z,98.36
2023-12-11T08:38:43.074Z,98.37
2023-12-11T08:41:10.466Z,98.37
2023-12-11T08:43:37.937Z,98.06
2023-12-11T08:46:05.306Z,97.93
2023-12-11T08:48:32.894Z,98.26
2023-12-11T08:51:00.612Z,98.15
2023-12-11T08:53:28.210Z,97.82
2023-12-11T08:55:55.574Z,97.66
2023-12-11T08:58:23.039Z,97.69
2023-12-11T09:00:50.644Z,97.76
2023-12-11T09:03:18.365Z,97.68
2023-12-11T09:05:45.813Z,97.26
2023-12-11T09:08:13.295Z,96.79
2023-12-11T09:10:42.201Z,96.87
2023-12-11T09:13:09.688Z,96.76
2023-12-11T09:15:37.854Z,96.56
2023-12-11T09:18:06.408Z,96.27
2023-12-11T09:20:34.036Z,95.79
2023-12-11T09:23:01.473Z,95.35
2023-12-11T09:25:29.491Z,95.36
2023-12-11T09:27:57.026Z,95.20
2023-12-11T09:30:24.681Z,95.09
2023-12-11T09:32:52.449Z,95.13
2023-12-11T09:35:20.441Z,94.90
2023-12-11T09:37:48.207Z,94.62
2023-12-11T09:40:15.758Z,94.48
2023-12-11T09:42:44.401Z,94.36
2023-12-11T09:45:12.712Z,94.58
2023-12-11T09:47:41.955Z,94.51
2023-12-11T09:50:09.856Z,94.24
2023-12-11T09:52:42.022Z,93.91
2023-12-11T09:55:10.308Z,93.74
2023-12-11T09:57:47.194Z,93.86
2023-12-11T10:00:17.357Z,94.18
2023-12-11T10:02:46.147Z,94.40
2023-12-11T10:05:13.850Z,94.29
2023-12-11T10:07:42.303Z,94.26
2023-12-11T10:10:23.078Z,94.26
2023-12-11T10:12:50.827Z,94.25
2023-12-11T10:15:26.309Z,94.23
2023-12-11T10:18:04.876Z,93.88
2023-12-11T10:20:33.913Z,93.60
2023-12-11T10:23:24.613Z,93.46
2023-12-11T10:26:04.900Z,93.27
2023-12-11T10:28:32.929Z,92.78
2023-12-11T10:31:03.615Z,92.22
2023-12-11T10:33:34.789Z,92.11
2023-12-11T10:36:13.599Z,92.31
2023-12-11T10:38:41.487Z,92.34
2023-12-11T10:41:09.919Z,91.99
2023-12-11T10:43:56.183Z,91.58
2023-12-11T10:46:31.299Z,91.39
2023-12-11T10:49:00.587Z,91.05
2023-12-11T10:51:28.093Z,91.20
2023-12-11T10:53:56.566Z,90.92
2023-12-11T10:56:25.135Z,90.99
2023-12-11T10:58:52.686Z,90.79
2023-12-11T11:01:20.188Z,90.84
2023-12-11T11:03:48.010Z,90.51
2023-12-11T11:06:15.454Z,90.58
2023-12-11T11:08:56.436Z,90.14
2023-12-11T11:11:28.563Z,90.37
2023-12-11T11:14:16.193Z,90.48
2023-12-11T11:16:53.570Z,90.33
2023-12-11T11:19:21.448Z,90.05
2023-12-11T11:22:01.623Z,89.98
2023-12-11T11:24:29.861Z,89.90
2023-12-11T11:27:41.650Z,89.71
2023-12-11T11:30:47.057Z,89.66
2023-12-11T11:33:14.868Z,89.36
2023-12-11T11:35:49.013Z,89.38
2023-12-11T11:38:18.122Z,88.80
2023-12-11T11:40:45.790Z,89.08
2023-12-11T11:43:14.283Z,89.47
2023-12-11T11:45:42.629Z,89.59
2023-12-11T11:48:10.365Z,89.47
2023-12-11T11:50:50.814Z,89.47
2023-12-11T11:53:18.522Z,89.67
2023-12-11T11:55:46.104Z,89.98
2023-12-11T11:58:14.593Z,89.50
2023-12-11T12:00:42.432Z,89.38
2023-12-11T12:03:10.095Z,89.31
2023-12-11T12:05:38.225Z,89.21
2023-12-11T12:08:11.981Z,89.57
2023-12-11T12:10:39.330Z,89.80
2023-12-11T12:13:06.941Z,89.59
2023-12-11T12:15:43.515Z,89.43
2023-12-11T12:18:11.237Z,89.73
2023-12-11T12:20:38.694Z,89.96
2023-12-11T12:23:07.166Z,89.91
2023-12-11T12:25:35.445Z,89.92
2023-12-11T12:28:10.046Z,90.30
2023-12-11T12:30:37.725Z,90.63
2023-12-11T12:33:07.134Z,91.19
2023-12-11T12:35:34.615Z,91.45
2023-12-11T12:38:02.681Z,91.70
2023-12-11T12:40:37.002Z,92.04
2023-12-11T12:43:14.518Z,92.53
2023-12-11T12:45:43.420Z,92.74
2023-12-11T12:48:12.141Z,92.73
2023-12-11T12:50:39.567Z,92.94
2023-12-11T12:53:07.701Z,93.22
2023-12-11T12:55:35.620Z,93.53
2023-12-11T12:58:03.742Z,93.67
2023-12-11T13:00:35.440Z,93.93
2023-12-11T13:03:04.487Z,94.28
2023-12-11T13:05:46.084Z,94.38
2023-12-11T13:08:15.980Z,94.59
2023-12-11T13:10:55.399Z,94.47
2023-12-11T13:13:29.008Z,94.66
2023-12-11T13:15:57.598Z,94.56
2023-12-11T13:18:32.152Z,94.54
2023-12-11T13:20:59.742Z,94.65
2023-12-11T13:23:27.164Z,94.75
2023-12-11T13:25:54.482Z,94.72
2023-12-11T13:28:21.833Z,94.64
2023-12-11T13:30:49.889Z,94.55
2023-12-11T13:33:17.457Z,94.42
2023-12-11T13:35:45.067Z,94.36
2023-12-11T13:38:13.516Z,94.20
2023-12-11T13:40:40.837Z,94.16
2023-12-11T13:43:08.220Z,94.16
2023-12-11T13:45:35.664Z,94.41
2023-12-11T13:48:03.256Z,94.51
2023-12-11T13:50:31.562Z,94.42
2023-12-11T13:52:58.943Z,94.25
2023-12-11T13:55:26.304Z,94.02
2023-12-11T13:57:53.698Z,93.69
2023-12-11T14:00:21.189Z,93.68
2023-12-11T14:03:00.815Z,93.55
2023-12-11T14:05:34.148Z,93.45
2023-12-11T14:08:03.524Z,93.28
2023-12-11T14:10:32.001Z,93.07
2023-12-11T14:12:59.419Z,93.32
2023-12-11T14:15:26.973Z,93.23
2023-12-11T14:17:54.719Z,93.47
2023-12-11T14:20:22.446Z,93.61
2023-12-11T14:22:49.904Z,93.54
2023-12-11T14:25:17.387Z,93.48
2023-12-11T14:34:43.314Z,93.15
2023-12-11T14:37:11.897Z,93.16
2023-12-11T14:39:40.025Z,93.24
2023-12-11T14:42:07.761Z,93.14
2023-12-11T14:44:38.574Z,93.22
2023-12-11T14:47:06.727Z,93.01
2023-12-11T14:49:34.621Z,92.92
2023-12-11T14:52:02.186Z,92.94
2023-12-11T14:54:29.618Z,92.86
2023-12-11T14:56:56.993Z,92.61
2023-12-11T14:59:24.736Z,92.22
2023-12-11T15:01:52.355Z,92.35
2023-12-11T15:04:19.951Z,92.39
2023-12-11T15:07:32.065Z,92.35
2023-12-11T15:09:59.732Z,92.39
2023-12-11T15:12:27.162Z,92.13
2023-12-11T15:14:55.038Z,91.93
2023-12-11T15:17:22.459Z,91.97
2023-12-11T15:19:50.349Z,91.94
2023-12-11T15:22:17.763Z,91.77
2023-12-11T15:24:46.470Z,91.81
2023-12-11T15:27:13.975Z,92.02
2023-12-11T15:29:41.634Z,92.05
2023-12-11T15:32:09.014Z,92.26
2023-12-11T15:34:38.334Z,92.23
2023-12-11T15:37:06.360Z,92.23
2023-12-11T15:39:33.802Z,92.38
2023-12-11T15:42:01.194Z,92.28
2023-12-11T15:44:28.524Z,92.29
2023-12-11T15:46:55.818Z,92.37
2023-12-11T15:49:23.464Z,92.35
2023-12-11T15:51:54.326Z,92.40
2023-12-11T15:54:21.845Z,92.63
2023-12-11T15:56:49.394Z,92.61
2023-12-11T15:59:17.340Z,92.81
2023-12-11T16:01:44.925Z,92.94
2023-12-11T16:04:12.415Z,93.01
2023-12-11T16:06:40.655Z,93.26
2023-12-11T16:09:10.486Z,93.31
2023-12-11T16:11:39.804Z,93.25
2023-12-11T16:14:07.147Z,93.25
2023-12-11T16:16:34.555Z,93.62
2023-12-11T16:19:02.230Z,93.83
2023-12-11T16:21:29.875Z,93.94
2023-12-11T16:23:57.216Z,94.13
2023-12-11T16:26:24.746Z,93.99
2023-12-11T16:28:52.024Z,93.98
2023-12-11T16:31:25.211Z,93.95
2023-12-11T16:33:52.890Z,94.06
2023-12-11T16:36:20.419Z,94.13
2023-12-11T16:38:47.942Z,94.29
2023-12-11T16:41:26.177Z,94.39
2023-12-11T16:43:53.939Z,94.44
2023-12-11T16:46:24.113Z,94.43
2023-12-11T16:48:51.775Z,94.72
2023-12-11T16:51:19.411Z,95.16
2023-12-11T16:53:47.506Z,95.38
2023-12-11T16:56:16.209Z,95.34
2023-12-11T16:58:43.843Z,95.22
2023-12-11T17:01:14.864Z,95.26
2023-12-11T17:03:42.660Z,95.57
2023-12-11T17:06:17.896Z,95.79
2023-12-11T17:08:45.721Z,95.66
2023-12-11T17:11:13.137Z,95.71
2023-12-11T17:13:41.462Z,95.77
2023-12-11T17:16:09.027Z,95.81
2023-12-11T17:18:36.700Z,96.08
2023-12-11T17:21:06.798Z,96.05
2023-12-11T17:23:34.899Z,96.10
2023-12-11T17:26:02.239Z,95.86
2023-12-11T17:28:29.625Z,95.97
2023-12-11T17:30:57.080Z,95.92
2023-12-11T17:33:24.663Z,95.91
2023-12-11T17:35:51.980Z,95.83
2023-12-11T17:38:19.378Z,96.06
2023-12-11T17:40:46.760Z,96.18
2023-12-11T17:43:14.136Z,96.23
2023-12-11T17:45:42.572Z,96.19
2023-12-11T17:48:10.140Z,96.19
2023-12-11T17:50:38.006Z,96.11
2023-12-11T17:53:05.395Z,96.09
2023-12-11T17:55:32.876Z,96.05
2023-12-11T17:58:00.284Z,96.26
2023-12-11T18:00:27.849Z,96.20
2023-12-11T18:02:55.272Z,96.04
2023-12-11T18:05:22.599Z,95.94
2023-12-11T18:07:50.190Z,96.09
2023-12-11T18:10:17.934Z,96.16
2023-12-11T18:12:45.528Z,96.16
2023-12-11T18:15:12.956Z,96.13
2023-12-11T18:17:40.627Z,96.07
2023-12-11T18:20:09.668Z,96.11
2023-12-11T18:22:37.264Z,96.12
2023-12-11T18:25:05.374Z,96.21
2023-12-11T18:27:36.016Z,96.20
2023-12-11T18:30:07.116Z,96.17
2023-12-11T18:32:35.670Z,96.17
2023-12-11T18:35:04.891Z,96.28
2023-12-11T18:37:32.799Z,96.35
2023-12-11T18:40:00.933Z,96.24
2023-12-11T18:42:28.464Z,96.28
2023-12-11T18:44:55.818Z,96.15
2023-12-11T18:47:23.182Z,95.91
2023-12-11T18:49:51.291Z,95.80
2023-12-11T18:52:18.824Z,95.61
2023-12-11T18:54:46.365Z,95.47
2023-12-11T18:57:15.776Z,95.41
2023-12-11T18:59:44.470Z,95.38
2023-12-11T19:02:13.478Z,95.38
2023-12-11T19:04:41.297Z,95.36
2023-12-11T19:07:08.739Z,95.62
2023-12-11T19:09:36.083Z,95.89
2023-12-11T19:12:04.108Z,95.84
2023-12-11T19:14:31.523Z,95.50
2023-12-11T19:16:59.020Z,95.47
2023-12-11T19:19:26.566Z,95.39
2023-12-11T19:21:54.190Z,95.47
2023-12-11T19:24:21.658Z,95.27
2023-12-11T19:26:49.006Z,95.21
2023-12-11T19:29:17.857Z,95.29
2023-12-11T19:31:45.353Z,95.22
2023-12-11T19:34:12.907Z,94.81
2023-12-11T19:36:42.762Z,94.54
2023-12-11T19:39:10.566Z,94.20
2023-12-11T19:41:37.948Z,94.19
2023-12-11T19:44:05.278Z,94.00
2023-12-11T19:46:32.630Z,93.85
2023-12-11T19:49:00.300Z,93.72
2023-12-11T19:51:30.438Z,93.68
2023-12-11T19:53:57.992Z,93.93
2023-12-11T19:56:25.815Z,94.12
2023-12-11T19:58:53.168Z,94.03
2023-12-11T20:01:28.118Z,93.91
2023-12-11T20:03:55.973Z,94.00
2023-12-11T20:06:25.029Z,93.97
2023-12-11T20:08:52.873Z,94.26
2023-12-11T20:11:20.701Z,94.21
2023-12-11T20:13:48.394Z,94.31
2023-12-11T20:16:16.343Z,94.46
2023-12-11T20:18:44.628Z,94.32
2023-12-11T20:21:12.077Z,94.33
2023-12-11T20:23:39.581Z,94.55
2023-12-11T20:26:07.098Z,94.79
2023-12-11T20:28:34.433Z,94.72
2023-12-11T20:31:01.838Z,94.82
2023-12-11T20:33:29.245Z,94.87
2023-12-11T20:35:56.704Z,94.58
2023-12-11T20:38:24.033Z,94.57
2023-12-11T20:40:51.359Z,94.40
2023-12-11T20:43:18.661Z,94.59
2023-12-11T20:45:46.048Z,94.83
2023-12-11T20:48:13.469Z,94.86
2023-12-11T20:50:40.888Z,94.80
2023-12-11T20:53:08.183Z,94.74
2023-12-11T20:55:35.644Z,94.90
2023-12-11T20:58:03.108Z,94.74
2023-12-11T21:00:30.536Z,94.69
2023-12-11T21:02:59.844Z,94.74
2023-12-11T21:05:28.049Z,94.56
2023-12-11T21:07:55.553Z,94.45
2023-12-11T21:10:22.962Z,94.50
2023-12-11T21:12:50.379Z,94.48
2023-12-11T21:15:18.695Z,94.59
2023-12-11T21:17:46.205Z,94.54
2023-12-11T21:20:13.740Z,94.52
2023-12-11T21:22:41.077Z,94.32
2023-12-11T21:25:08.633Z,94.26
2023-12-11T21:27:36.130Z,94.38
2023-12-11T21:30:08.176Z,94.50
2023-12-11T21:32:35.497Z,94.53
2023-12-11T21:35:02.801Z,94.57
2023-12-11T21:37:30.420Z,94.51
2023-12-11T21:39:57.977Z,94.51
2023-12-11T21:42:25.393Z,94.55
2023-12-11T21:44:52.688Z,94.62
2023-12-11T21:47:20.009Z,94.55
2023-12-11T21:49:47.807Z,94.66
2023-12-11T21:52:15.664Z,94.79
2023-12-11T21:54:43.074Z,94.75
2023-12-11T21:57:10.395Z,94.70
2023-12-11T21:59:42.899Z,94.68
2023-12-11T22:02:15.338Z,94.72
2023-12-11T22:04:42.763Z,94.69
2023-12-11T22:07:10.097Z,95.10
2023-12-11T22:09:37.455Z,95.25
2023-12-11T22:12:05.187Z,95.19
2023-12-11T22:14:32.567Z,95.06
2023-12-11T22:16:59.870Z,95.07
2023-12-11T22:19:27.390Z,95.28
2023-12-11T22:21:54.830Z,95.29
2023-12-11T22:24:22.205Z,95.26
2023-12-11T22:26:50.324Z,95.55
2023-12-11T22:29:17.773Z,95.58
2023-12-11T22:31:45.876Z,95.40
2023-12-11T22:34:13.351Z,95.28
2023-12-11T22:36:41.277Z,95.26
2023-12-11T22:39:09.459Z,95.02
2023-12-11T22:41:36.963Z,94.97
2023-12-11T22:44:04.446Z,95.22
2023-12-11T22:46:31.846Z,95.32
2023-12-11T22:48:59.520Z,95.39
2023-12-11T22:51:27.044Z,95.42
2023-12-11T22:53:54.476Z,95.40
2023-12-11T22:56:21.879Z,95.51
2023-12-11T22:58:49.387Z,95.27
2023-12-11T23:01:16.963Z,95.31
2023-12-11T23:03:45.460Z,95.34
2023-12-11T23:06:13.883Z,95.39
2023-12-11T23:08:41.458Z,95.31
2023-12-11T23:11:08.853Z,95.26
2023-12-11T23:13:36.197Z,95.30
2023-12-11T23:16:03.951Z,95.32
2023-12-11T23:18:31.519Z,95.36
2023-12-11T23:20:58.952Z,95.36
2023-12-11T23:23:26.440Z,95.51
2023-12-11T23:25:58.839Z,95.45
2023-12-11T23:28:31.886Z,95.53
2023-12-11T23:30:59.369Z,95.46
2023-12-11T23:33:26.773Z,95.38
2023-12-11T23:35:54.180Z,95.54
2023-12-11T23:38:21.507Z,95.74
2023-12-11T23:40:49.747Z,95.73
2023-12-11T23:43:17.076Z,95.66
2023-12-11T23:45:44.586Z,95.68
2023-12-11T23:48:11.942Z,95.63
2023-12-11T23:50:39.892Z,95.69
2023-12-11T23:53:07.215Z,95.77
2023-12-11T23:55:34.584Z,95.74
2023-12-11T23:58:02.027Z,95.70
